createdAt,value
2019-01-13T00:02:06.377Z,3.87
2019-01-13T00:07:12.335Z,4.09
2019-01-13T00:12:17.961Z,3.96
2019-01-13T00:17:23.588Z,3.86
2019-01-13T00:22:29.620Z,3.98
2019-01-13T00:27:35.579Z,4.00
2019-01-13T00:32:41.181Z,3.97
2019-01-13T00:37:47.206Z,3.89
2019-01-13T00:42:52.798Z,3.97
2019-01-13T00:47:58.449Z,4.06
2019-01-13T00:53:04.124Z,4.04
2019-01-13T00:58:09.797Z,3.97
2019-01-13T01:03:15.533Z,3.95
2019-01-13T01:08:21.369Z,4.10
2019-01-13T01:13:27.019Z,3.96
2019-01-13T01:18:34.617Z,4.00
2019-01-13T01:23:40.629Z,4.11
2019-01-13T01:28:46.604Z,4.00
2019-01-13T01:33:52.540Z,4.04
2019-01-13T01:38:58.118Z,3.94
2019-01-13T01:44:06.056Z,4.01
2019-01-13T01:49:11.683Z,3.96
2019-01-13T01:54:17.321Z,3.96
2019-01-13T01:59:23.234Z,3.94
2019-01-13T02:04:28.838Z,4.01
2019-01-13T02:09:34.564Z,4.02
2019-01-13T02:14:42.430Z,4.04
2019-01-13T02:19:49.186Z,4.14
2019-01-13T02:24:54.802Z,4.13
2019-01-13T02:30:00.421Z,4.10
2019-01-13T02:35:06.943Z,4.26
2019-01-13T02:40:14.774Z,4.22
2019-01-13T02:45:26.156Z,4.10
2019-01-13T02:50:32.190Z,4.12
2019-01-13T02:55:37.852Z,4.17
2019-01-13T03:00:43.942Z,4.13
2019-01-13T03:05:49.906Z,4.13
2019-01-13T03:10:55.562Z,4.20
2019-01-13T03:16:01.185Z,4.16
2019-01-13T03:21:10.292Z,4.17
2019-01-13T03:26:15.948Z,4.06
2019-01-13T03:31:22.238Z,4.15
2019-01-13T03:36:27.864Z,4.28
2019-01-13T03:41:33.560Z,4.24
2019-01-13T03:46:40.656Z,4.27
2019-01-13T03:51:46.292Z,4.30
2019-01-13T03:56:51.941Z,4.20
2019-01-13T04:01:57.601Z,4.27
2019-01-13T04:07:05.922Z,4.30
2019-01-13T04:12:12.058Z,4.37
2019-01-13T04:17:20.130Z,4.38
2019-01-13T04:22:25.740Z,4.38
2019-01-13T04:27:31.350Z,4.30
2019-01-13T04:32:37.389Z,4.49
2019-01-13T04:37:43.006Z,4.41
2019-01-13T04:42:51.816Z,4.41
2019-01-13T04:48:00.240Z,4.24
2019-01-13T04:53:06.569Z,4.22
2019-01-13T04:58:12.278Z,4.16
2019-01-13T05:03:17.877Z,4.24
2019-01-13T05:08:26.368Z,4.24
2019-01-13T05:13:32.032Z,4.28
2019-01-13T05:18:37.620Z,4.38
2019-01-13T05:23:43.206Z,4.49
2019-01-13T05:28:48.840Z,4.52
2019-01-13T05:33:55.743Z,4.30
2019-01-13T05:39:01.408Z,4.50
2019-01-13T05:44:08.330Z,4.43
2019-01-13T05:49:13.918Z,4.49
2019-01-13T05:54:19.533Z,4.39
2019-01-13T05:59:25.643Z,4.33
2019-01-13T06:04:31.228Z,4.46
2019-01-13T06:09:37.180Z,4.39
2019-01-13T06:14:43.342Z,4.53
2019-01-13T06:19:48.950Z,4.44
2019-01-13T06:24:54.540Z,4.53
2019-01-13T06:30:00.226Z,4.29
2019-01-13T06:35:07.834Z,4.24
2019-01-13T06:40:15.762Z,4.53
2019-01-13T06:45:26.223Z,4.40
2019-01-13T06:50:31.850Z,4.38
2019-01-13T06:55:37.441Z,4.42
2019-01-13T07:00:43.063Z,4.41
2019-01-13T07:05:50.718Z,4.32
2019-01-13T07:10:56.305Z,4.49
2019-01-13T07:16:04.964Z,4.55
2019-01-13T07:21:10.833Z,4.59
2019-01-13T07:26:17.650Z,4.56
2019-01-13T07:31:23.251Z,4.61
2019-01-13T07:36:28.894Z,4.69
2019-01-13T07:41:34.466Z,4.68
2019-01-13T07:46:40.085Z,4.81
2019-01-13T07:51:46.765Z,4.76
2019-01-13T07:56:52.519Z,4.84
2019-01-13T08:01:58.125Z,4.85
2019-01-13T08:07:07.807Z,4.83
2019-01-13T08:12:13.793Z,4.66
2019-01-13T08:17:19.694Z,4.86
2019-01-13T08:22:25.338Z,4.99
2019-01-13T08:27:33.400Z,5.00
2019-01-13T08:32:41.839Z,5.12
2019-01-13T08:37:48.164Z,5.05
2019-01-13T08:42:53.822Z,5.17
2019-01-13T08:47:59.471Z,5.10
2019-01-13T08:53:07.626Z,5.19
2019-01-13T08:58:13.230Z,5.21
2019-01-13T09:03:18.913Z,5.17
2019-01-13T09:08:26.572Z,5.03
2019-01-13T09:13:32.541Z,5.23
2019-01-13T09:18:38.206Z,5.28
2019-01-13T09:23:44.157Z,5.24
2019-01-13T09:28:49.822Z,5.26
2019-01-13T09:33:55.462Z,5.34
2019-01-13T09:39:01.105Z,5.36
2019-01-13T09:44:10.947Z,5.27
2019-01-13T09:49:19.197Z,5.26
2019-01-13T09:54:25.990Z,5.46
2019-01-13T09:59:31.689Z,5.32
2019-01-13T10:04:37.718Z,5.45
2019-01-13T10:09:45.253Z,5.51
2019-01-13T10:14:53.687Z,5.51
2019-01-13T10:19:59.512Z,5.59
2019-01-13T10:25:07.508Z,5.73
2019-01-13T10:30:19.693Z,5.53
2019-01-13T10:35:25.667Z,5.60
2019-01-13T10:40:33.533Z,5.50
2019-01-13T10:45:40.704Z,5.49
2019-01-13T10:50:47.471Z,5.59
2019-01-13T10:55:55.584Z,5.50
2019-01-13T11:04:48.850Z,5.50
2019-01-13T11:09:54.970Z,5.33
2019-01-13T11:15:10.063Z,5.56
2019-01-13T11:20:24.021Z,5.56
2019-01-13T11:25:29.747Z,5.50
2019-01-13T11:30:35.403Z,5.67
2019-01-13T11:35:42.580Z,5.65
2019-01-13T11:40:48.282Z,5.63
2019-01-13T11:45:56.218Z,5.59
2019-01-13T11:51:03.809Z,5.83
2019-01-13T11:56:14.042Z,5.95
2019-01-13T12:01:20.059Z,5.95
2019-01-13T12:06:26.171Z,5.82
2019-01-13T12:11:31.870Z,5.87
2019-01-13T12:16:38.937Z,5.91
2019-01-13T12:21:45.167Z,5.83
2019-01-13T12:26:50.838Z,5.78
2019-01-13T12:31:57.808Z,5.89
2019-01-13T12:37:05.564Z,5.57
2019-01-13T12:42:12.443Z,5.62
2019-01-13T12:47:19.656Z,5.51
2019-01-13T12:52:27.669Z,5.48
2019-01-13T12:57:35.629Z,5.24
2019-01-13T13:02:41.363Z,5.24
2019-01-13T13:07:49.119Z,5.37
2019-01-13T13:12:54.806Z,5.38
2019-01-13T13:18:00.923Z,5.38
2019-01-13T13:23:11.439Z,5.46
2019-01-13T13:28:19.142Z,5.66
2019-01-13T13:33:25.634Z,5.68
2019-01-13T13:38:31.305Z,5.76
2019-01-13T13:43:35.456Z,5.59
2019-01-13T13:48:41.169Z,5.57
2019-01-13T13:53:48.430Z,5.65
2019-01-13T13:58:55.623Z,5.74
2019-01-13T14:04:05.729Z,5.69
2019-01-13T14:09:13.758Z,5.79
2019-01-13T14:14:19.478Z,5.81
2019-01-13T14:19:25.258Z,5.97
2019-01-13T14:24:32.957Z,5.87
2019-01-13T14:29:39.445Z,5.93
2019-01-13T14:34:53.045Z,5.86
2019-01-13T14:40:03.170Z,5.80
2019-01-13T14:45:13.827Z,5.89
2019-01-13T14:50:22.093Z,5.84
2019-01-13T14:55:30.586Z,5.87
2019-01-13T15:00:37.638Z,5.86
2019-01-13T15:05:46.007Z,5.97
2019-01-13T15:10:53.744Z,5.95
2019-01-13T15:16:02.898Z,5.87
2019-01-13T15:21:11.929Z,5.85
2019-01-13T15:26:18.868Z,5.84
2019-01-13T15:31:27.899Z,5.64
2019-01-13T15:36:34.560Z,5.82
2019-01-13T15:41:40.281Z,5.82
2019-01-13T15:46:48.851Z,5.69
2019-01-13T15:51:56.931Z,5.69
2019-01-13T15:57:03.139Z,5.71
2019-01-13T16:02:09.431Z,5.61
2019-01-13T16:07:15.160Z,5.73
2019-01-13T16:12:21.686Z,5.78
2019-01-13T16:17:31.226Z,5.79
2019-01-13T16:22:37.954Z,5.79
2019-01-13T16:27:43.715Z,5.87
2019-01-13T16:33:00.849Z,5.97
2019-01-13T16:38:08.824Z,5.97
2019-01-13T16:43:16.803Z,5.97
2019-01-13T16:48:24.455Z,6.04
2019-01-13T16:53:30.899Z,6.09
2019-01-13T16:58:36.631Z,5.99
2019-01-13T17:03:43.122Z,5.99
2019-01-13T17:08:48.811Z,5.97
2019-01-13T17:13:55.920Z,6.15
2019-01-13T17:19:05.997Z,6.08
2019-01-13T17:24:12.966Z,6.05
2019-01-13T17:29:20.030Z,6.11
2019-01-13T17:34:35.826Z,6.22
2019-01-13T17:39:38.839Z,6.15
2019-01-13T17:44:44.700Z,6.15
2019-01-13T17:49:52.128Z,6.13
2019-01-13T17:54:59.372Z,6.23
2019-01-13T18:00:12.584Z,6.26
2019-01-13T18:05:19.846Z,6.38
2019-01-13T18:10:28.506Z,6.26
2019-01-13T18:15:34.680Z,6.38
2019-01-13T18:20:40.435Z,6.50
2019-01-13T18:25:47.156Z,6.50
2019-01-13T18:30:53.758Z,6.55
2019-01-13T18:36:02.116Z,6.47
2019-01-13T18:41:22.022Z,6.58
2019-01-13T18:46:27.784Z,6.58
2019-01-13T18:51:37.924Z,6.67
2019-01-13T18:56:45.171Z,6.76
2019-01-13T19:01:50.919Z,6.89
2019-01-13T19:07:00.258Z,6.94
2019-01-13T19:12:15.308Z,6.82
2019-01-13T19:17:29.216Z,7.02
2019-01-13T19:22:39.337Z,7.10
2019-01-13T19:27:46.342Z,7.04
2019-01-13T19:32:54.870Z,7.04
2019-01-13T19:38:05.764Z,7.03
2019-01-13T19:43:23.601Z,7.10
2019-01-13T19:48:33.635Z,7.05
2019-01-13T19:53:40.633Z,7.17
2019-01-13T19:58:48.292Z,7.12
2019-01-13T20:03:54.426Z,7.02
2019-01-13T20:09:00.971Z,6.79
2019-01-13T20:14:09.460Z,6.62
2019-01-13T20:19:15.065Z,6.52
2019-01-13T20:24:23.798Z,6.52
2019-01-13T20:29:31.483Z,6.29
2019-01-13T20:34:38.589Z,6.09
2019-01-13T20:39:45.756Z,6.09
2019-01-13T20:44:55.100Z,6.09
2019-01-13T20:50:01.020Z,5.95
2019-01-13T20:55:09.963Z,5.93
2019-01-13T21:00:22.219Z,6.08
2019-01-13T21:05:29.591Z,5.82
2019-01-13T21:10:45.173Z,5.72
2019-01-13T21:15:51.598Z,5.72
2019-01-13T21:20:58.213Z,5.80
2019-01-13T21:26:04.850Z,5.80
2019-01-13T21:31:16.859Z,5.81
2019-01-13T21:36:24.384Z,5.70
2019-01-13T21:41:30.280Z,5.86
2019-01-13T21:46:35.977Z,5.73
2019-01-13T21:51:41.672Z,5.42
2019-01-13T21:56:48.597Z,5.42
2019-01-13T22:02:03.594Z,5.66
2019-01-13T22:07:15.512Z,5.57
2019-01-13T22:12:21.723Z,5.89
2019-01-13T22:17:27.360Z,5.71
2019-01-13T22:28:56.727Z,5.74
2019-01-13T22:34:02.431Z,5.67
2019-01-13T22:39:09.044Z,5.59
2019-01-13T22:44:14.689Z,5.59
2019-01-13T22:49:20.286Z,5.54
2019-01-13T22:54:25.991Z,5.63
2019-01-13T22:59:31.669Z,5.57
2019-01-13T23:04:37.360Z,5.43
2019-01-13T23:09:42.986Z,5.74
2019-01-13T23:14:48.612Z,5.74
2019-01-13T23:19:54.229Z,5.74
2019-01-13T23:24:59.829Z,5.62
2019-01-13T23:30:09.283Z,5.42
2019-01-13T23:35:15.286Z,5.42
2019-01-13T23:40:20.942Z,5.30
2019-01-13T23:45:26.668Z,4.88
2019-01-13T23:56:33.926Z,5.04
